sensor_id;sensor_type;location;lat;lon;timestamp;temperature;humidity
47162;DHT22;32921;53.256;8.198;2023-05-07T00:00:08;10.40;99.90
47162;DHT22;32921;53.256;8.198;2023-05-07T00:02:34;10.40;99.90
47162;DHT22;32921;53.256;8.198;2023-05-07T00:05:00;10.40;99.90
47162;DHT22;32921;53.256;8.198;2023-05-07T00:07:27;10.30;99.90
47162;DHT22;32921;53.256;8.198;2023-05-07T00:09:53;10.30;99.90
47162;DHT22;32921;53.256;8.198;2023-05-07T00:12:18;10.30;99.90
47162;DHT22;32921;53.256;8.198;2023-05-07T00:14:44;10.30;99.90
47162;DHT22;32921;53.256;8.198;2023-05-07T00:17:10;10.30;99.90
47162;DHT22;32921;53.256;8.198;2023-05-07T00:19:36;10.30;99.90
47162;DHT22;32921;53.256;8.198;2023-05-07T00:22:02;10.30;99.90
47162;DHT22;32921;53.256;8.198;2023-05-07T00:24:27;10.30;99.90
47162;DHT22;32921;53.256;8.198;2023-05-07T00:26:53;10.20;99.90
47162;DHT22;32921;53.256;8.198;2023-05-07T00:29:18;10.20;99.90
47162;DHT22;32921;53.256;8.198;2023-05-07T00:31:44;10.20;99.90
47162;DHT22;32921;53.256;8.198;2023-05-07T00:34:10;10.10;99.90
47162;DHT22;32921;53.256;8.198;2023-05-07T00:36:35;10.20;99.90
47162;DHT22;32921;53.256;8.198;2023-05-07T00:39:01;10.20;99.90
47162;DHT22;32921;53.256;8.198;2023-05-07T00:41:29;10.10;99.90
47162;DHT22;32921;53.256;8.198;2023-05-07T00:43:55;10.10;99.90
47162;DHT22;32921;53.256;8.198;2023-05-07T00:46:22;10.10;99.90
47162;DHT22;32921;53.256;8.198;2023-05-07T00:48:48;10.00;99.90
47162;DHT22;32921;53.256;8.198;2023-05-07T00:51:15;10.00;99.90
47162;DHT22;32921;53.256;8.198;2023-05-07T00:53:41;10.00;99.90
47162;DHT22;32921;53.256;8.198;2023-05-07T00:56:06;9.90;99.90
47162;DHT22;32921;53.256;8.198;2023-05-07T00:58:33;9.90;99.90
47162;DHT22;32921;53.256;8.198;2023-05-07T01:00:59;9.90;99.90
47162;DHT22;32921;53.256;8.198;2023-05-07T01:03:24;9.80;99.90
47162;DHT22;32921;53.256;8.198;2023-05-07T01:05:51;9.80;99.90
47162;DHT22;32921;53.256;8.198;2023-05-07T01:08:18;9.90;99.90
47162;DHT22;32921;53.256;8.198;2023-05-07T01:10:44;9.80;99.90
47162;DHT22;32921;53.256;8.198;2023-05-07T01:13:10;9.90;99.90
47162;DHT22;32921;53.256;8.198;2023-05-07T01:15:37;9.90;99.90
47162;DHT22;32921;53.256;8.198;2023-05-07T01:18:03;9.90;99.90
47162;DHT22;32921;53.256;8.198;2023-05-07T01:20:29;9.90;99.90
47162;DHT22;32921;53.256;8.198;2023-05-07T01:22:56;9.80;99.90
47162;DHT22;32921;53.256;8.198;2023-05-07T01:25:22;9.80;99.90
47162;DHT22;32921;53.256;8.198;2023-05-07T01:27:48;9.80;99.90
47162;DHT22;32921;53.256;8.198;2023-05-07T01:30:14;9.80;99.90
47162;DHT22;32921;53.256;8.198;2023-05-07T01:32:53;9.80;99.90
47162;DHT22;32921;53.256;8.198;2023-05-07T01:35:26;9.80;99.90
47162;DHT22;32921;53.256;8.198;2023-05-07T01:37:54;9.80;99.90
47162;DHT22;32921;53.256;8.198;2023-05-07T01:40:20;9.80;99.90
47162;DHT22;32921;53.256;8.198;2023-05-07T01:42:46;9.80;99.90
47162;DHT22;32921;53.256;8.198;2023-05-07T01:45:13;9.80;99.90
47162;DHT22;32921;53.256;8.198;2023-05-07T01:47:39;9.80;99.90
47162;DHT22;32921;53.256;8.198;2023-05-07T01:50:08;9.80;99.90
47162;DHT22;32921;53.256;8.198;2023-05-07T01:52:34;9.80;99.90
47162;DHT22;32921;53.256;8.198;2023-05-07T01:55:00;9.70;99.90
47162;DHT22;32921;53.256;8.198;2023-05-07T01:57:25;9.70;99.90
47162;DHT22;32921;53.256;8.198;2023-05-07T01:59:51;9.70;99.90
47162;DHT22;32921;53.256;8.198;2023-05-07T02:02:16;9.70;99.90
47162;DHT22;32921;53.256;8.198;2023-05-07T02:04:42;9.70;99.90
47162;DHT22;32921;53.256;8.198;2023-05-07T02:07:08;9.70;99.90
47162;DHT22;32921;53.256;8.198;2023-05-07T02:09:33;9.70;99.90
47162;DHT22;32921;53.256;8.198;2023-05-07T02:11:59;9.70;99.90
47162;DHT22;32921;53.256;8.198;2023-05-07T02:14:25;9.60;99.90
47162;DHT22;32921;53.256;8.198;2023-05-07T02:16:51;9.60;99.90
47162;DHT22;32921;53.256;8.198;2023-05-07T02:19:16;9.60;99.90
47162;DHT22;32921;53.256;8.198;2023-05-07T02:21:43;9.60;99.90
47162;DHT22;32921;53.256;8.198;2023-05-07T02:24:09;9.60;99.90
47162;DHT22;32921;53.256;8.198;2023-05-07T02:26:34;9.60;99.90
47162;DHT22;32921;53.256;8.198;2023-05-07T02:29:00;9.50;99.90
47162;DHT22;32921;53.256;8.198;2023-05-07T02:31:26;9.50;99.90
47162;DHT22;32921;53.256;8.198;2023-05-07T02:33:51;9.50;99.90
47162;DHT22;32921;53.256;8.198;2023-05-07T02:36:17;9.50;99.90
47162;DHT22;32921;53.256;8.198;2023-05-07T02:38:42;9.50;99.90
47162;DHT22;32921;53.256;8.198;2023-05-07T02:41:08;9.50;99.90
47162;DHT22;32921;53.256;8.198;2023-05-07T02:43:33;9.40;99.90
47162;DHT22;32921;53.256;8.198;2023-05-07T02:46:02;9.50;99.90
47162;DHT22;32921;53.256;8.198;2023-05-07T02:48:28;9.50;99.90
47162;DHT22;32921;53.256;8.198;2023-05-07T02:50:54;9.50;99.90
47162;DHT22;32921;53.256;8.198;2023-05-07T02:53:19;9.50;99.90
47162;DHT22;32921;53.256;8.198;2023-05-07T02:55:45;9.50;99.90
47162;DHT22;32921;53.256;8.198;2023-05-07T02:58:10;9.50;99.90
47162;DHT22;32921;53.256;8.198;2023-05-07T03:00:36;9.40;99.90
47162;DHT22;32921;53.256;8.198;2023-05-07T03:03:01;9.40;99.90
47162;DHT22;32921;53.256;8.198;2023-05-07T03:05:27;9.30;99.90
47162;DHT22;32921;53.256;8.198;2023-05-07T03:07:52;9.40;99.90
47162;DHT22;32921;53.256;8.198;2023-05-07T03:10:18;9.40;99.90
47162;DHT22;32921;53.256;8.198;2023-05-07T03:12:44;9.40;99.90
47162;DHT22;32921;53.256;8.198;2023-05-07T03:15:09;9.40;99.90
47162;DHT22;32921;53.256;8.198;2023-05-07T03:17:36;9.30;99.90
47162;DHT22;32921;53.256;8.198;2023-05-07T03:20:02;9.20;99.90
47162;DHT22;32921;53.256;8.198;2023-05-07T03:22:28;9.20;99.90
47162;DHT22;32921;53.256;8.198;2023-05-07T03:24:53;9.20;99.90
47162;DHT22;32921;53.256;8.198;2023-05-07T03:27:19;9.20;99.90
47162;DHT22;32921;53.256;8.198;2023-05-07T03:29:45;9.20;99.90
47162;DHT22;32921;53.256;8.198;2023-05-07T03:32:10;9.20;99.90
47162;DHT22;32921;53.256;8.198;2023-05-07T03:34:36;9.10;99.90
47162;DHT22;32921;53.256;8.198;2023-05-07T03:37:01;9.10;99.90
47162;DHT22;32921;53.256;8.198;2023-05-07T03:39:27;9.10;99.90
47162;DHT22;32921;53.256;8.198;2023-05-07T03:41:52;9.10;99.90
47162;DHT22;32921;53.256;8.198;2023-05-07T03:44:18;9.10;99.90
47162;DHT22;32921;53.256;8.198;2023-05-07T03:46:44;9.00;99.90
47162;DHT22;32921;53.256;8.198;2023-05-07T03:49:09;9.00;99.90
47162;DHT22;32921;53.256;8.198;2023-05-07T03:51:35;9.00;99.90
47162;DHT22;32921;53.256;8.198;2023-05-07T03:54:01;9.00;99.90
47162;DHT22;32921;53.256;8.198;2023-05-07T03:56:26;9.00;99.90
47162;DHT22;32921;53.256;8.198;2023-05-07T03:58:53;9.00;99.90
47162;DHT22;32921;53.256;8.198;2023-05-07T04:01:19;9.00;99.90
47162;DHT22;32921;53.256;8.198;2023-05-07T04:03:45;9.00;99.90
47162;DHT22;32921;53.256;8.198;2023-05-07T04:06:10;8.90;99.90
47162;DHT22;32921;53.256;8.198;2023-05-07T04:08:36;8.90;99.90
47162;DHT22;32921;53.256;8.198;2023-05-07T04:11:01;8.90;99.90
47162;DHT22;32921;53.256;8.198;2023-05-07T04:13:27;8.80;99.90
47162;DHT22;32921;53.256;8.198;2023-05-07T04:15:56;8.90;99.90
47162;DHT22;32921;53.256;8.198;2023-05-07T04:18:21;8.90;99.90
47162;DHT22;32921;53.256;8.198;2023-05-07T04:20:49;8.90;99.90
47162;DHT22;32921;53.256;8.198;2023-05-07T04:23:15;8.90;99.90
47162;DHT22;32921;53.256;8.198;2023-05-07T04:25:41;8.90;99.90
47162;DHT22;32921;53.256;8.198;2023-05-07T04:28:06;9.00;99.90
47162;DHT22;32921;53.256;8.198;2023-05-07T04:30:32;9.00;99.90
47162;DHT22;32921;53.256;8.198;2023-05-07T04:32:58;9.00;99.90
47162;DHT22;32921;53.256;8.198;2023-05-07T04:35:23;9.00;99.90
47162;DHT22;32921;53.256;8.198;2023-05-07T04:37:49;9.00;99.90
47162;DHT22;32921;53.256;8.198;2023-05-07T04:40:15;9.00;99.90
47162;DHT22;32921;53.256;8.198;2023-05-07T04:42:41;9.10;99.90
47162;DHT22;32921;53.256;8.198;2023-05-07T04:45:07;9.20;99.90
47162;DHT22;32921;53.256;8.198;2023-05-07T04:47:34;9.20;99.90
47162;DHT22;32921;53.256;8.198;2023-05-07T04:49:59;9.20;99.90
47162;DHT22;32921;53.256;8.198;2023-05-07T04:52:25;9.20;99.90
47162;DHT22;32921;53.256;8.198;2023-05-07T04:54:50;9.20;99.90
47162;DHT22;32921;53.256;8.198;2023-05-07T04:57:16;9.20;99.90
47162;DHT22;32921;53.256;8.198;2023-05-07T04:59:43;9.20;99.90
47162;DHT22;32921;53.256;8.198;2023-05-07T05:02:10;9.20;99.90
47162;DHT22;32921;53.256;8.198;2023-05-07T05:04:36;9.20;99.90
47162;DHT22;32921;53.256;8.198;2023-05-07T05:07:02;9.30;99.90
47162;DHT22;32921;53.256;8.198;2023-05-07T05:09:29;9.30;99.90
47162;DHT22;32921;53.256;8.198;2023-05-07T05:11:55;9.30;99.90
47162;DHT22;32921;53.256;8.198;2023-05-07T05:14:20;9.50;99.90
47162;DHT22;32921;53.256;8.198;2023-05-07T05:16:46;9.50;99.90
47162;DHT22;32921;53.256;8.198;2023-05-07T05:19:12;9.50;99.90
47162;DHT22;32921;53.256;8.198;2023-05-07T05:21:37;9.70;99.90
47162;DHT22;32921;53.256;8.198;2023-05-07T05:24:03;9.70;99.90
47162;DHT22;32921;53.256;8.198;2023-05-07T05:26:28;9.40;99.90
47162;DHT22;32921;53.256;8.198;2023-05-07T05:28:54;9.40;99.90
47162;DHT22;32921;53.256;8.198;2023-05-07T05:31:20;9.50;99.90
47162;DHT22;32921;53.256;8.198;2023-05-07T05:33:45;9.50;99.90
47162;DHT22;32921;53.256;8.198;2023-05-07T05:36:11;9.60;99.90
47162;DHT22;32921;53.256;8.198;2023-05-07T05:38:38;9.50;99.90
47162;DHT22;32921;53.256;8.198;2023-05-07T05:41:04;9.60;99.90
47162;DHT22;32921;53.256;8.198;2023-05-07T05:43:29;9.60;99.90
47162;DHT22;32921;53.256;8.198;2023-05-07T05:45:55;9.50;99.90
47162;DHT22;32921;53.256;8.198;2023-05-07T05:48:21;9.40;99.90
47162;DHT22;32921;53.256;8.198;2023-05-07T05:50:47;9.50;99.90
47162;DHT22;32921;53.256;8.198;2023-05-07T05:53:12;9.60;99.90
47162;DHT22;32921;53.256;8.198;2023-05-07T05:55:38;9.50;99.90
47162;DHT22;32921;53.256;8.198;2023-05-07T05:58:03;9.50;99.90
47162;DHT22;32921;53.256;8.198;2023-05-07T06:00:29;9.60;99.90
47162;DHT22;32921;53.256;8.198;2023-05-07T06:02:55;9.50;99.90
47162;DHT22;32921;53.256;8.198;2023-05-07T06:05:21;9.60;99.90
47162;DHT22;32921;53.256;8.198;2023-05-07T06:07:46;9.60;99.90
47162;DHT22;32921;53.256;8.198;2023-05-07T06:10:12;9.50;99.90
47162;DHT22;32921;53.256;8.198;2023-05-07T06:12:37;9.50;99.90
47162;DHT22;32921;53.256;8.198;2023-05-07T06:15:04;9.50;99.90
47162;DHT22;32921;53.256;8.198;2023-05-07T06:17:29;9.50;99.90
47162;DHT22;32921;53.256;8.198;2023-05-07T06:19:55;9.60;99.90
47162;DHT22;32921;53.256;8.198;2023-05-07T06:22:21;9.70;99.90
47162;DHT22;32921;53.256;8.198;2023-05-07T06:24:47;9.60;99.90
47162;DHT22;32921;53.256;8.198;2023-05-07T06:27:12;9.70;99.90
47162;DHT22;32921;53.256;8.198;2023-05-07T06:29:38;9.60;99.90
47162;DHT22;32921;53.256;8.198;2023-05-07T06:32:11;9.60;99.90
47162;DHT22;32921;53.256;8.198;2023-05-07T06:34:37;9.60;99.90
47162;DHT22;32921;53.256;8.198;2023-05-07T06:37:03;9.60;99.90
47162;DHT22;32921;53.256;8.198;2023-05-07T06:39:29;9.70;99.90
47162;DHT22;32921;53.256;8.198;2023-05-07T06:41:54;9.70;99.90
47162;DHT22;32921;53.256;8.198;2023-05-07T06:44:20;9.70;99.90
47162;DHT22;32921;53.256;8.198;2023-05-07T06:46:46;9.70;99.90
47162;DHT22;32921;53.256;8.198;2023-05-07T06:49:14;9.80;99.90
47162;DHT22;32921;53.256;8.198;2023-05-07T06:51:40;9.80;99.90
47162;DHT22;32921;53.256;8.198;2023-05-07T06:54:06;9.80;99.90
47162;DHT22;32921;53.256;8.198;2023-05-07T06:56:32;9.90;99.90
47162;DHT22;32921;53.256;8.198;2023-05-07T06:58:59;9.90;99.90
47162;DHT22;32921;53.256;8.198;2023-05-07T07:01:25;9.80;99.90
47162;DHT22;32921;53.256;8.198;2023-05-07T07:03:50;9.90;99.90
47162;DHT22;32921;53.256;8.198;2023-05-07T07:06:16;9.90;99.90
47162;DHT22;32921;53.256;8.198;2023-05-07T07:08:42;10.00;99.90
47162;DHT22;32921;53.256;8.198;2023-05-07T07:11:08;10.20;99.90
47162;DHT22;32921;53.256;8.198;2023-05-07T07:13:34;10.10;99.90
47162;DHT22;32921;53.256;8.198;2023-05-07T07:16:00;10.10;99.90
47162;DHT22;32921;53.256;8.198;2023-05-07T07:18:25;10.30;99.90
47162;DHT22;32921;53.256;8.198;2023-05-07T07:20:51;10.10;99.90
47162;DHT22;32921;53.256;8.198;2023-05-07T07:23:16;10.10;99.90
47162;DHT22;32921;53.256;8.198;2023-05-07T07:25:42;9.90;99.90
47162;DHT22;32921;53.256;8.198;2023-05-07T07:28:08;9.80;99.90
47162;DHT22;32921;53.256;8.198;2023-05-07T07:30:33;10.00;99.90
47162;DHT22;32921;53.256;8.198;2023-05-07T07:32:59;10.00;99.90
47162;DHT22;32921;53.256;8.198;2023-05-07T07:35:33;10.10;99.90
47162;DHT22;32921;53.256;8.198;2023-05-07T07:37:59;10.20;99.90
47162;DHT22;32921;53.256;8.198;2023-05-07T07:40:24;10.20;99.90
47162;DHT22;32921;53.256;8.198;2023-05-07T07:42:51;10.20;99.90
47162;DHT22;32921;53.256;8.198;2023-05-07T07:45:17;10.40;99.90
47162;DHT22;32921;53.256;8.198;2023-05-07T07:47:42;10.50;99.90
47162;DHT22;32921;53.256;8.198;2023-05-07T07:50:09;10.40;99.90
47162;DHT22;32921;53.256;8.198;2023-05-07T07:52:34;10.40;99.90
47162;DHT22;32921;53.256;8.198;2023-05-07T07:55:00;10.30;99.90
47162;DHT22;32921;53.256;8.198;2023-05-07T07:57:26;10.20;99.90
47162;DHT22;32921;53.256;8.198;2023-05-07T07:59:51;10.30;99.90
47162;DHT22;32921;53.256;8.198;2023-05-07T08:02:17;10.30;99.90
47162;DHT22;32921;53.256;8.198;2023-05-07T08:04:43;10.20;99.90
47162;DHT22;32921;53.256;8.198;2023-05-07T08:07:12;10.20;99.90
47162;DHT22;32921;53.256;8.198;2023-05-07T08:09:38;10.40;99.90
47162;DHT22;32921;53.256;8.198;2023-05-07T08:12:04;10.40;99.90
47162;DHT22;32921;53.256;8.198;2023-05-07T08:14:30;10.30;99.90
47162;DHT22;32921;53.256;8.198;2023-05-07T08:16:56;10.30;99.90
47162;DHT22;32921;53.256;8.198;2023-05-07T08:19:21;10.40;99.90
47162;DHT22;32921;53.256;8.198;2023-05-07T08:21:47;10.50;99.90
47162;DHT22;32921;53.256;8.198;2023-05-07T08:24:14;10.60;99.90
47162;DHT22;32921;53.256;8.198;2023-05-07T08:26:40;10.20;99.90
47162;DHT22;32921;53.256;8.198;2023-05-07T08:29:06;10.30;99.90
47162;DHT22;32921;53.256;8.198;2023-05-07T08:31:31;10.30;99.90
47162;DHT22;32921;53.256;8.198;2023-05-07T08:33:58;10.30;99.90
47162;DHT22;32921;53.256;8.198;2023-05-07T08:36:23;10.30;99.90
47162;DHT22;32921;53.256;8.198;2023-05-07T08:38:49;10.40;99.90
47162;DHT22;32921;53.256;8.198;2023-05-07T08:41:15;10.40;99.90
47162;DHT22;32921;53.256;8.198;2023-05-07T08:43:41;10.70;99.90
47162;DHT22;32921;53.256;8.198;2023-05-07T08:46:11;10.60;99.90
47162;DHT22;32921;53.256;8.198;2023-05-07T08:48:37;10.70;99.90
47162;DHT22;32921;53.256;8.198;2023-05-07T08:51:03;11.00;99.90
47162;DHT22;32921;53.256;8.198;2023-05-07T08:53:28;11.20;99.90
47162;DHT22;32921;53.256;8.198;2023-05-07T08:55:54;11.30;99.90
47162;DHT22;32921;53.256;8.198;2023-05-07T08:58:20;11.30;99.90
47162;DHT22;32921;53.256;8.198;2023-05-07T09:00:46;11.10;99.90
47162;DHT22;32921;53.256;8.198;2023-05-07T09:03:12;11.20;99.90
47162;DHT22;32921;53.256;8.198;2023-05-07T09:05:39;11.10;99.90
47162;DHT22;32921;53.256;8.198;2023-05-07T09:08:06;11.40;99.90
47162;DHT22;32921;53.256;8.198;2023-05-07T09:10:33;11.20;99.90
47162;DHT22;32921;53.256;8.198;2023-05-07T09:12:59;11.50;99.90
47162;DHT22;32921;53.256;8.198;2023-05-07T09:15:28;11.60;99.90
47162;DHT22;32921;53.256;8.198;2023-05-07T09:17:53;11.70;99.90
47162;DHT22;32921;53.256;8.198;2023-05-07T09:20:19;11.80;99.90
47162;DHT22;32921;53.256;8.198;2023-05-07T09:22:45;12.20;99.90
47162;DHT22;32921;53.256;8.198;2023-05-07T09:25:11;12.70;99.90
47162;DHT22;32921;53.256;8.198;2023-05-07T09:27:37;13.00;99.90
47162;DHT22;32921;53.256;8.198;2023-05-07T09:30:06;13.40;99.90
47162;DHT22;32921;53.256;8.198;2023-05-07T09:32:36;13.30;99.90
47162;DHT22;32921;53.256;8.198;2023-05-07T09:35:05;12.70;99.90
47162;DHT22;32921;53.256;8.198;2023-05-07T09:37:31;12.80;99.90
47162;DHT22;32921;53.256;8.198;2023-05-07T09:39:58;13.00;99.90
47162;DHT22;32921;53.256;8.198;2023-05-07T09:42:24;13.40;99.90
47162;DHT22;32921;53.256;8.198;2023-05-07T09:44:53;13.30;99.90
47162;DHT22;32921;53.256;8.198;2023-05-07T09:47:19;13.50;99.90
47162;DHT22;32921;53.256;8.198;2023-05-07T09:49:47;13.10;99.60
47162;DHT22;32921;53.256;8.198;2023-05-07T09:52:14;13.40;99.70
47162;DHT22;32921;53.256;8.198;2023-05-07T09:54:40;14.20;98.60
47162;DHT22;32921;53.256;8.198;2023-05-07T09:57:12;15.10;96.00
47162;DHT22;32921;53.256;8.198;2023-05-07T09:59:42;14.90;94.30
47162;DHT22;32921;53.256;8.198;2023-05-07T10:02:09;14.20;95.40
47162;DHT22;32921;53.256;8.198;2023-05-07T10:04:35;14.30;95.90
47162;DHT22;32921;53.256;8.198;2023-05-07T10:07:03;14.80;94.40
47162;DHT22;32921;53.256;8.198;2023-05-07T10:09:30;13.80;95.00
47162;DHT22;32921;53.256;8.198;2023-05-07T10:11:56;13.40;96.90
47162;DHT22;32921;53.256;8.198;2023-05-07T10:14:22;13.80;96.40
47162;DHT22;32921;53.256;8.198;2023-05-07T10:16:48;14.30;95.50
47162;DHT22;32921;53.256;8.198;2023-05-07T10:19:14;14.40;95.00
47162;DHT22;32921;53.256;8.198;2023-05-07T10:21:48;13.90;95.50
47162;DHT22;32921;53.256;8.198;2023-05-07T10:24:26;14.60;94.60
47162;DHT22;32921;53.256;8.198;2023-05-07T10:26:53;15.00;92.80
47162;DHT22;32921;53.256;8.198;2023-05-07T10:29:29;15.20;92.90
47162;DHT22;32921;53.256;8.198;2023-05-07T10:31:59;15.30;92.50
47162;DHT22;32921;53.256;8.198;2023-05-07T10:34:34;15.40;92.10
47162;DHT22;32921;53.256;8.198;2023-05-07T10:37:02;14.90;91.50
47162;DHT22;32921;53.256;8.198;2023-05-07T10:39:28;14.50;92.70
47162;DHT22;32921;53.256;8.198;2023-05-07T10:41:53;14.60;93.70
47162;DHT22;32921;53.256;8.198;2023-05-07T10:44:26;14.70;92.40
47162;DHT22;32921;53.256;8.198;2023-05-07T10:47:05;14.40;92.40
47162;DHT22;32921;53.256;8.198;2023-05-07T10:49:31;14.60;93.40
47162;DHT22;32921;53.256;8.198;2023-05-07T10:52:29;14.50;92.90
47162;DHT22;32921;53.256;8.198;2023-05-07T10:57:45;15.40;92.70
47162;DHT22;32921;53.256;8.198;2023-05-07T11:05:29;16.70;89.60
47162;DHT22;32921;53.256;8.198;2023-05-07T11:07:59;16.10;87.50
47162;DHT22;32921;53.256;8.198;2023-05-07T11:10:55;15.90;90.00
47162;DHT22;32921;53.256;8.198;2023-05-07T11:16:22;15.20;90.50
47162;DHT22;32921;53.256;8.198;2023-05-07T11:18:50;15.40;91.30
47162;DHT22;32921;53.256;8.198;2023-05-07T11:21:38;16.60;90.40
47162;DHT22;32921;53.256;8.198;2023-05-07T11:24:08;16.00;88.90
47162;DHT22;32921;53.256;8.198;2023-05-07T11:29:24;16.10;86.30
47162;DHT22;32921;53.256;8.198;2023-05-07T11:31:53;16.30;86.40
47162;DHT22;32921;53.256;8.198;2023-05-07T11:34:23;16.50;85.10
47162;DHT22;32921;53.256;8.198;2023-05-07T11:36:49;17.50;83.30
47162;DHT22;32921;53.256;8.198;2023-05-07T11:39:28;18.00;80.20
47162;DHT22;32921;53.256;8.198;2023-05-07T11:41:54;19.00;77.50
47162;DHT22;32921;53.256;8.198;2023-05-07T11:44:20;18.30;76.50
47162;DHT22;32921;53.256;8.198;2023-05-07T11:46:45;17.60;81.40
47162;DHT22;32921;53.256;8.198;2023-05-07T11:49:11;18.20;78.50
47162;DHT22;32921;53.256;8.198;2023-05-07T11:51:37;18.00;77.70
47162;DHT22;32921;53.256;8.198;2023-05-07T11:54:04;18.00;79.40
47162;DHT22;32921;53.256;8.198;2023-05-07T11:56:34;18.40;77.30
47162;DHT22;32921;53.256;8.198;2023-05-07T11:59:04;18.20;76.50
47162;DHT22;32921;53.256;8.198;2023-05-07T12:01:30;18.50;76.20
47162;DHT22;32921;53.256;8.198;2023-05-07T12:03:55;18.10;77.90
47162;DHT22;32921;53.256;8.198;2023-05-07T12:06:21;18.00;79.10
47162;DHT22;32921;53.256;8.198;2023-05-07T12:08:46;18.80;76.40
47162;DHT22;32921;53.256;8.198;2023-05-07T12:11:18;17.40;79.20
47162;DHT22;32921;53.256;8.198;2023-05-07T12:13:47;17.20;80.10
47162;DHT22;32921;53.256;8.198;2023-05-07T12:16:12;17.10;80.20
47162;DHT22;32921;53.256;8.198;2023-05-07T12:18:39;15.80;82.70
47162;DHT22;32921;53.256;8.198;2023-05-07T12:21:06;15.80;84.90
47162;DHT22;32921;53.256;8.198;2023-05-07T12:23:33;16.00;82.90
47162;DHT22;32921;53.256;8.198;2023-05-07T12:25:59;15.20;87.00
47162;DHT22;32921;53.256;8.198;2023-05-07T12:28:25;15.40;88.30
47162;DHT22;32921;53.256;8.198;2023-05-07T12:30:51;15.70;85.00
47162;DHT22;32921;53.256;8.198;2023-05-07T12:33:18;15.60;86.90
47162;DHT22;32921;53.256;8.198;2023-05-07T12:35:47;15.60;88.70
47162;DHT22;32921;53.256;8.198;2023-05-07T12:38:15;16.20;87.00
47162;DHT22;32921;53.256;8.198;2023-05-07T12:40:46;16.80;85.00
47162;DHT22;32921;53.256;8.198;2023-05-07T12:43:30;16.90;83.00
47162;DHT22;32921;53.256;8.198;2023-05-07T12:45:59;17.20;81.20
47162;DHT22;32921;53.256;8.198;2023-05-07T12:48:26;16.90;81.30
47162;DHT22;32921;53.256;8.198;2023-05-07T12:50:56;16.40;83.70
47162;DHT22;32921;53.256;8.198;2023-05-07T12:53:23;15.90;84.20
47162;DHT22;32921;53.256;8.198;2023-05-07T12:55:55;15.80;86.20
47162;DHT22;32921;53.256;8.198;2023-05-07T12:58:30;16.10;86.10
47162;DHT22;32921;53.256;8.198;2023-05-07T13:01:00;16.10;86.20
47162;DHT22;32921;53.256;8.198;2023-05-07T13:03:33;16.80;83.30
47162;DHT22;32921;53.256;8.198;2023-05-07T13:06:04;16.40;84.10
47162;DHT22;32921;53.256;8.198;2023-05-07T13:08:35;16.30;83.30
47162;DHT22;32921;53.256;8.198;2023-05-07T13:11:03;16.10;86.00
47162;DHT22;32921;53.256;8.198;2023-05-07T13:13:34;16.30;85.00
47162;DHT22;32921;53.256;8.198;2023-05-07T13:16:00;16.70;83.80
47162;DHT22;32921;53.256;8.198;2023-05-07T13:18:26;16.70;83.90
47162;DHT22;32921;53.256;8.198;2023-05-07T13:20:52;16.80;82.80
47162;DHT22;32921;53.256;8.198;2023-05-07T13:23:18;16.80;82.60
47162;DHT22;32921;53.256;8.198;2023-05-07T13:25:44;16.40;84.10
47162;DHT22;32921;53.256;8.198;2023-05-07T13:28:09;16.40;84.00
47162;DHT22;32921;53.256;8.198;2023-05-07T13:30:35;16.70;84.10
47162;DHT22;32921;53.256;8.198;2023-05-07T13:33:01;16.40;85.30
47162;DHT22;32921;53.256;8.198;2023-05-07T13:35:26;16.50;84.90
47162;DHT22;32921;53.256;8.198;2023-05-07T13:37:52;16.90;84.30
47162;DHT22;32921;53.256;8.198;2023-05-07T13:40:18;17.40;81.60
47162;DHT22;32921;53.256;8.198;2023-05-07T13:42:44;17.60;81.80
47162;DHT22;32921;53.256;8.198;2023-05-07T13:45:10;17.30;82.00
47162;DHT22;32921;53.256;8.198;2023-05-07T13:47:42;17.40;82.30
47162;DHT22;32921;53.256;8.198;2023-05-07T13:50:09;17.30;80.70
47162;DHT22;32921;53.256;8.198;2023-05-07T13:52:37;17.60;81.60
47162;DHT22;32921;53.256;8.198;2023-05-07T13:55:02;17.80;77.80
47162;DHT22;32921;53.256;8.198;2023-05-07T13:57:28;17.40;78.50
47162;DHT22;32921;53.256;8.198;2023-05-07T13:59:53;17.20;80.60
47162;DHT22;32921;53.256;8.198;2023-05-07T14:02:19;17.30;81.30
47162;DHT22;32921;53.256;8.198;2023-05-07T14:04:44;17.30;80.10
47162;DHT22;32921;53.256;8.198;2023-05-07T14:07:10;17.50;80.60
47162;DHT22;32921;53.256;8.198;2023-05-07T14:09:36;17.50;79.70
47162;DHT22;32921;53.256;8.198;2023-05-07T14:12:02;17.80;78.70
47162;DHT22;32921;53.256;8.198;2023-05-07T14:14:27;19.00;74.50
47162;DHT22;32921;53.256;8.198;2023-05-07T14:16:53;18.30;76.30
47162;DHT22;32921;53.256;8.198;2023-05-07T14:19:18;18.40;76.70
47162;DHT22;32921;53.256;8.198;2023-05-07T14:21:44;19.30;74.00
47162;DHT22;32921;53.256;8.198;2023-05-07T14:24:10;19.70;70.10
47162;DHT22;32921;53.256;8.198;2023-05-07T14:26:35;20.20;68.50
47162;DHT22;32921;53.256;8.198;2023-05-07T14:29:01;19.30;68.30
47162;DHT22;32921;53.256;8.198;2023-05-07T14:31:27;19.50;68.60
47162;DHT22;32921;53.256;8.198;2023-05-07T14:33:53;19.20;70.00
47162;DHT22;32921;53.256;8.198;2023-05-07T14:36:19;19.60;68.30
47162;DHT22;32921;53.256;8.198;2023-05-07T14:38:46;19.90;66.10
47162;DHT22;32921;53.256;8.198;2023-05-07T14:41:12;19.30;69.30
47162;DHT22;32921;53.256;8.198;2023-05-07T14:43:38;18.80;69.60
47162;DHT22;32921;53.256;8.198;2023-05-07T14:46:04;18.70;71.00
47162;DHT22;32921;53.256;8.198;2023-05-07T14:48:29;18.80;69.80
47162;DHT22;32921;53.256;8.198;2023-05-07T14:50:55;19.50;68.00
47162;DHT22;32921;53.256;8.198;2023-05-07T14:53:22;19.50;68.30
47162;DHT22;32921;53.256;8.198;2023-05-07T14:55:48;19.90;68.10
47162;DHT22;32921;53.256;8.198;2023-05-07T14:58:13;19.90;66.90
47162;DHT22;32921;53.256;8.198;2023-05-07T15:00:39;19.20;68.30
47162;DHT22;32921;53.256;8.198;2023-05-07T15:03:09;19.40;68.80
47162;DHT22;32921;53.256;8.198;2023-05-07T15:05:36;20.70;65.40
47162;DHT22;32921;53.256;8.198;2023-05-07T15:08:02;21.40;63.80
47162;DHT22;32921;53.256;8.198;2023-05-07T15:10:27;21.70;61.80
47162;DHT22;32921;53.256;8.198;2023-05-07T15:12:53;21.00;62.30
47162;DHT22;32921;53.256;8.198;2023-05-07T15:15:19;19.40;66.90
47162;DHT22;32921;53.256;8.198;2023-05-07T15:17:44;19.90;66.10
47162;DHT22;32921;53.256;8.198;2023-05-07T15:20:10;19.20;67.10
47162;DHT22;32921;53.256;8.198;2023-05-07T15:22:36;19.10;68.30
47162;DHT22;32921;53.256;8.198;2023-05-07T15:25:03;18.80;70.30
47162;DHT22;32921;53.256;8.198;2023-05-07T15:27:29;19.00;69.40
47162;DHT22;32921;53.256;8.198;2023-05-07T15:29:56;19.30;69.00
47162;DHT22;32921;53.256;8.198;2023-05-07T15:32:22;19.30;66.60
47162;DHT22;32921;53.256;8.198;2023-05-07T15:34:47;19.00;68.80
47162;DHT22;32921;53.256;8.198;2023-05-07T15:37:13;19.90;66.60
47162;DHT22;32921;53.256;8.198;2023-05-07T15:39:38;19.60;66.50
47162;DHT22;32921;53.256;8.198;2023-05-07T15:42:04;20.00;66.70
47162;DHT22;32921;53.256;8.198;2023-05-07T15:44:30;20.30;63.90
47162;DHT22;32921;53.256;8.198;2023-05-07T15:46:58;20.10;66.20